Time;durP1;ratioP1;P1;durP2;ratioP2;P2;SDS_P1;SDS_P2;PMS_P1;PMS_P2;Temp;Humidity;BMP_temperature;BMP_pressure;BME280_temperature;BME280_humidity;BME280_pressure;Samples;Min_cycle;Max_cycle;Signal;HPM_P1;HPM_P2
2022/01/12 00:01:13;;;;;;;2.50;1.23;;;2.70;99.90;;;;;;4953360;28;20054;-64
2022/01/12 00:03:40;;;;;;;1.50;1.08;;;2.60;99.90;;;;;;4951552;28;20046;-64
2022/01/12 00:06:06;;;;;;;2.58;1.27;;;2.70;99.90;;;;;;4947285;28;20041;-63
2022/01/12 00:08:32;;;;;;;2.55;1.70;;;2.70;99.90;;;;;;4960389;28;20515;-63
2022/01/12 00:11:03;;;;;;;2.40;1.58;;;2.80;99.90;;;;;;4960365;28;20034;-64
2022/01/12 00:13:29;;;;;;;4.57;1.75;;;2.80;99.90;;;;;;4928381;28;20146;-64
2022/01/12 00:15:55;;;;;;;2.65;1.20;;;2.80;99.90;;;;;;4964515;28;20431;-63
2022/01/12 00:18:21;;;;;;;1.30;1.02;;;2.70;99.90;;;;;;4960642;28;20085;-63
2022/01/12 00:20:49;;;;;;;5.00;1.83;;;2.70;99.90;;;;;;4944051;28;20484;-63
2022/01/12 00:23:15;;;;;;;5.45;1.58;;;2.70;99.90;;;;;;4962738;28;20019;-63
2022/01/12 00:26:04;;;;;;;4.50;1.85;;;2.70;99.90;;;;;;4964091;28;20368;-64
2022/01/12 00:34:03;;;;;;;2.35;1.33;;;2.90;99.90;;;;;;4950211;28;20174;-64
2022/01/12 00:36:30;;;;;;;1.42;1.02;;;2.90;99.90;;;;;;4946197;28;20107;-63
2022/01/12 00:38:56;;;;;;;1.33;1.00;;;2.90;99.90;;;;;;4950688;28;20079;-63
2022/01/12 00:41:22;;;;;;;3.80;2.00;;;3.00;99.90;;;;;;4945774;28;20134;-63
2022/01/12 00:43:56;;;;;;;3.33;1.60;;;3.00;99.90;;;;;;4953603;28;20034;-63
2022/01/12 00:46:22;;;;;;;2.03;1.40;;;3.00;99.90;;;;;;4946158;28;20404;-63
2022/01/12 00:48:47;;;;;;;1.25;1.00;;;2.90;99.90;;;;;;4932319;28;20471;-63
2022/01/12 00:51:13;;;;;;;2.80;1.25;;;2.90;99.90;;;;;;4951305;28;20033;-63
2022/01/12 00:53:40;;;;;;;2.25;1.20;;;3.00;99.90;;;;;;4947855;28;20032;-63
2022/01/12 00:56:06;;;;;;;1.15;1.00;;;3.00;99.90;;;;;;4947918;28;20027;-63
2022/01/12 00:58:33;;;;;;;4.05;2.08;;;3.00;99.90;;;;;;4950344;29;20102;-64
2022/01/12 01:00:59;;;;;;;1.55;1.17;;;3.00;99.90;;;;;;4929306;29;20050;-63
2022/01/12 01:03:24;;;;;;;4.60;2.28;;;3.00;99.90;;;;;;4928335;29;20036;-63
2022/01/12 01:05:50;;;;;;;1.60;1.30;;;3.00;99.90;;;;;;4946110;28;20035;-63
2022/01/12 01:08:17;;;;;;;4.55;1.95;;;3.00;99.90;;;;;;4948703;28;20108;-63
2022/01/12 01:10:46;;;;;;;2.83;1.63;;;3.00;99.90;;;;;;4952822;28;20020;-63
2022/01/12 01:13:14;;;;;;;3.13;1.55;;;3.00;99.90;;;;;;4940368;29;20594;-63
2022/01/12 01:26:32;;;;;;;6.15;2.03;;;2.90;99.90;;;;;;4944820;28;20094;-64
2022/01/12 01:28:58;;;;;;;1.92;1.17;;;2.90;99.90;;;;;;4949029;28;20047;-64
2022/01/12 01:31:32;;;;;;;3.95;1.58;;;3.00;99.90;;;;;;4943271;28;20114;-64
2022/01/12 01:34:06;;;;;;;2.45;1.30;;;3.00;99.90;;;;;;4944184;29;20063;-65
2022/01/12 01:36:34;;;;;;;3.30;1.60;;;3.00;99.90;;;;;;4922858;29;20035;-65
2022/01/12 01:38:59;;;;;;;3.72;1.50;;;3.00;99.90;;;;;;4949778;28;20073;-64
2022/01/12 01:41:25;;;;;;;2.85;1.35;;;2.90;99.90;;;;;;4945634;28;20039;-63
2022/01/12 01:44:35;;;;;;;2.10;1.27;;;3.00;99.90;;;;;;4951765;28;20027;-63
2022/01/12 01:54:56;;;;;;;1.35;0.90;;;3.20;99.90;;;;;;4947195;28;20383;-64
2022/01/12 01:57:24;;;;;;;3.10;1.85;;;3.30;99.90;;;;;;4944000;28;20028;-64
2022/01/12 01:59:50;;;;;;;1.50;1.15;;;3.30;99.90;;;;;;4944601;28;20383;-64
2022/01/12 02:02:16;;;;;;;5.25;1.30;;;3.30;99.90;;;;;;4945950;28;20024;-64
2022/01/12 02:04:42;;;;;;;1.33;1.02;;;3.20;99.90;;;;;;4949415;28;20031;-64
2022/01/12 02:07:07;;;;;;;4.82;2.20;;;3.30;99.90;;;;;;4923902;29;20386;-65
2022/01/12 02:09:37;;;;;;;2.33;1.20;;;3.30;99.90;;;;;;4949697;28;20056;-64
2022/01/12 02:12:03;;;;;;;2.22;1.20;;;3.30;99.90;;;;;;4946853;28;20054;-64
2022/01/12 02:14:29;;;;;;;2.13;1.63;;;3.30;99.90;;;;;;4942835;28;20023;-63
2022/01/12 02:17:11;;;;;;;2.22;1.35;;;3.30;99.90;;;;;;4947614;28;20122;-64
2022/01/12 02:36:13;;;;;;;1.60;1.25;;;3.60;99.90;;;;;;4944137;28;20134;-64
2022/01/12 02:41:23;;;;;;;1.20;1.02;;;3.40;99.90;;;;;;4944772;28;20614;-64
2022/01/12 02:54:49;;;;;;;3.45;1.35;;;3.20;99.90;;;;;;4952100;28;20035;-63
2022/01/12 02:57:15;;;;;;;3.20;1.67;;;3.10;99.90;;;;;;4947436;28;20107;-63
2022/01/12 03:02:33;;;;;;;1.92;1.33;;;3.00;99.90;;;;;;4948686;28;20576;-64
2022/01/12 03:05:22;;;;;;;2.47;1.48;;;3.00;99.90;;;;;;4932501;28;20110;-63
2022/01/12 03:07:48;;;;;;;2.90;1.52;;;2.90;99.90;;;;;;4946006;28;20046;-64
2022/01/12 03:10:14;;;;;;;2.13;1.42;;;3.00;99.90;;;;;;4951393;28;20414;-64
2022/01/12 03:12:45;;;;;;;3.55;1.95;;;2.90;99.90;;;;;;4931864;29;20619;-63
2022/01/12 03:15:11;;;;;;;8.25;1.80;;;3.00;99.90;;;;;;4945722;28;20035;-63
2022/01/12 03:17:37;;;;;;;5.22;2.10;;;3.10;99.90;;;;;;4930545;28;20032;-64
2022/01/12 03:20:04;;;;;;;4.80;1.88;;;3.20;99.90;;;;;;4952817;28;20082;-64
2022/01/12 03:22:30;;;;;;;5.75;2.03;;;3.10;99.90;;;;;;4954915;28;20967;-64
2022/01/12 03:24:55;;;;;;;1.63;1.25;;;3.10;99.90;;;;;;4953678;28;20115;-64
2022/01/12 03:27:24;;;;;;;4.22;1.35;;;3.00;99.90;;;;;;4946810;28;20650;-64
2022/01/12 03:29:54;;;;;;;6.22;1.65;;;3.00;99.90;;;;;;4952351;28;20042;-64
2022/01/12 03:32:25;;;;;;;3.00;1.48;;;3.00;99.90;;;;;;4950691;28;20471;-64
2022/01/12 03:34:57;;;;;;;3.33;1.60;;;2.90;99.90;;;;;;4950534;28;20031;-64
2022/01/12 03:37:41;;;;;;;5.47;3.08;;;3.00;99.90;;;;;;4944561;29;20023;-64
2022/01/12 03:40:09;;;;;;;3.97;1.75;;;3.00;99.90;;;;;;4951450;28;20488;-64
2022/01/12 03:42:35;;;;;;;7.55;2.35;;;3.10;99.90;;;;;;4953256;28;20538;-64
2022/01/12 03:45:01;;;;;;;3.13;1.95;;;3.20;99.90;;;;;;4947270;28;20027;-64
2022/01/12 03:47:26;;;;;;;3.83;2.00;;;3.30;99.90;;;;;;4948416;28;20081;-64
2022/01/12 03:49:52;;;;;;;4.18;1.98;;;3.40;99.90;;;;;;4949782;28;20047;-64
2022/01/12 03:52:17;;;;;;;2.20;1.25;;;3.40;99.90;;;;;;4949861;28;20027;-64
2022/01/12 03:54:43;;;;;;;2.15;1.42;;;3.40;99.90;;;;;;4937587;29;20402;-64
2022/01/12 03:57:08;;;;;;;3.78;1.75;;;3.50;99.90;;;;;;4928896;29;20038;-64
2022/01/12 03:59:34;;;;;;;3.28;1.80;;;3.40;99.90;;;;;;4949099;28;20024;-64
2022/01/12 04:02:00;;;;;;;3.83;1.92;;;3.50;99.90;;;;;;4944899;28;20069;-64
2022/01/12 04:04:35;;;;;;;2.70;1.65;;;3.60;99.90;;;;;;4928873;28;20149;-64
2022/01/12 04:09:45;;;;;;;3.45;1.60;;;3.60;99.90;;;;;;4946492;28;20025;-64
2022/01/12 04:12:11;;;;;;;1.15;1.00;;;3.60;99.90;;;;;;4948691;28;20082;-64
2022/01/12 04:14:37;;;;;;;3.90;1.35;;;3.60;99.90;;;;;;4945069;28;20054;-64
2022/01/12 04:17:03;;;;;;;3.38;1.65;;;3.60;99.90;;;;;;4949528;28;20491;-64
2022/01/12 04:19:28;;;;;;;1.65;1.05;;;3.60;99.90;;;;;;4945922;28;20122;-64
2022/01/12 04:21:54;;;;;;;3.78;1.83;;;3.60;99.90;;;;;;4944139;28;20054;-64
2022/01/12 04:24:20;;;;;;;1.75;1.23;;;3.70;99.90;;;;;;4932172;29;20037;-64
2022/01/12 04:26:46;;;;;;;2.90;1.52;;;3.80;99.90;;;;;;4947848;28;20047;-64
2022/01/12 04:29:13;;;;;;;2.92;1.90;;;3.80;99.90;;;;;;4946952;28;20496;-63
2022/01/12 04:31:39;;;;;;;3.03;1.77;;;3.80;99.90;;;;;;4946797;28;20075;-64
2022/01/12 04:34:05;;;;;;;2.88;1.27;;;3.80;99.90;;;;;;4948692;28;20031;-64
2022/01/12 04:36:32;;;;;;;4.43;1.48;;;3.80;99.90;;;;;;4948691;28;20027;-64
2022/01/12 04:38:58;;;;;;;4.68;1.83;;;3.90;99.90;;;;;;4954242;28;20387;-64
2022/01/12 04:41:25;;;;;;;3.97;1.73;;;3.90;99.90;;;;;;4926117;29;20039;-64
2022/01/12 04:43:52;;;;;;;3.63;1.40;;;3.90;99.90;;;;;;4944145;28;20023;-65
2022/01/12 04:46:24;;;;;;;3.83;1.77;;;3.90;99.90;;;;;;4941587;28;20024;-64
2022/01/12 04:51:18;;;;;;;1.88;1.27;;;3.90;99.90;;;;;;4948180;28;20035;-64
2022/01/12 04:53:43;;;;;;;2.47;1.50;;;3.90;99.90;;;;;;4948490;28;20059;-64
2022/01/12 04:56:09;;;;;;;3.17;1.30;;;3.90;99.90;;;;;;4944729;28;20480;-64
2022/01/12 04:58:35;;;;;;;2.47;1.25;;;3.90;99.90;;;;;;4945275;28;20503;-64
2022/01/12 05:01:11;;;;;;;2.03;1.25;;;3.90;99.90;;;;;;4946466;28;20063;-64
2022/01/12 05:09:14;;;;;;;1.77;1.27;;;3.90;99.90;;;;;;4944808;28;20066;-64
2022/01/12 05:14:25;;;;;;;3.75;1.42;;;3.90;99.90;;;;;;4943427;28;20583;-64
2022/01/12 05:16:51;;;;;;;2.88;1.48;;;3.90;99.90;;;;;;4944102;28;20411;-64
2022/01/12 05:19:17;;;;;;;6.53;1.83;;;3.90;99.90;;;;;;4928459;29;20027;-64
2022/01/12 05:21:43;;;;;;;2.97;1.80;;;4.00;99.90;;;;;;4944248;28;20035;-64
2022/01/12 05:24:10;;;;;;;5.45;2.20;;;4.00;99.90;;;;;;4944783;29;20041;-64
2022/01/12 05:26:36;;;;;;;5.07;1.92;;;4.00;99.90;;;;;;4947975;28;20030;-64
2022/01/12 05:29:03;;;;;;;2.38;1.38;;;4.00;99.90;;;;;;4943304;28;20493;-63
2022/01/12 05:31:28;;;;;;;4.75;2.22;;;4.00;99.90;;;;;;4925010;28;20033;-64
2022/01/12 05:33:58;;;;;;;4.60;2.05;;;4.00;99.90;;;;;;4940194;28;20114;-64
2022/01/12 05:36:24;;;;;;;3.85;2.03;;;4.00;99.90;;;;;;4951484;28;20106;-64
2022/01/12 05:38:50;;;;;;;2.80;1.38;;;4.00;99.90;;;;;;4957230;28;20055;-64
2022/01/12 05:41:16;;;;;;;8.07;1.90;;;3.90;99.90;;;;;;4944554;28;20444;-64
2022/01/12 05:43:44;;;;;;;4.30;1.80;;;3.90;99.90;;;;;;4945734;28;20031;-64
2022/01/12 05:46:12;;;;;;;6.10;2.38;;;3.90;99.90;;;;;;4946954;28;20435;-64
2022/01/12 05:51:24;;;;;;;4.15;1.65;;;3.90;99.90;;;;;;4944379;28;20812;-64
2022/01/12 05:53:50;;;;;;;3.78;2.05;;;4.00;99.90;;;;;;4930613;29;20035;-64
2022/01/12 05:56:15;;;;;;;4.95;2.15;;;4.00;99.90;;;;;;4948737;28;20038;-64
2022/01/12 05:58:41;;;;;;;3.83;1.60;;;4.00;99.90;;;;;;4929438;28;20024;-64
2022/01/12 06:01:07;;;;;;;4.10;1.10;;;4.00;99.90;;;;;;4958143;28;20019;-64
2022/01/12 06:03:32;;;;;;;3.08;1.55;;;4.10;99.90;;;;;;4945689;28;20035;-64
2022/01/12 06:05:58;;;;;;;5.03;1.52;;;4.10;99.90;;;;;;4930758;28;20059;-64
2022/01/12 06:08:24;;;;;;;1.85;1.20;;;4.10;99.90;;;;;;4931130;29;20024;-64
2022/01/12 06:10:49;;;;;;;3.90;1.33;;;4.00;99.90;;;;;;4948304;28;20139;-64
2022/01/12 06:13:15;;;;;;;2.13;1.33;;;4.10;99.90;;;;;;4949791;28;20027;-64
2022/01/12 06:15:41;;;;;;;3.05;1.27;;;4.10;99.90;;;;;;4945690;28;20036;-64
2022/01/12 06:18:06;;;;;;;4.78;1.55;;;4.10;99.90;;;;;;4948093;28;20380;-64
2022/01/12 06:20:32;;;;;;;4.70;1.70;;;4.10;99.90;;;;;;4942772;28;20075;-64
2022/01/12 06:22:57;;;;;;;2.25;1.40;;;4.10;99.90;;;;;;4950136;28;20027;-64
2022/01/12 06:25:23;;;;;;;4.97;1.88;;;4.00;99.90;;;;;;4933787;28;20058;-64
2022/01/12 06:27:52;;;;;;;2.75;1.42;;;4.00;99.90;;;;;;4954753;28;20089;-64
2022/01/12 06:32:57;;;;;;;4.43;1.73;;;3.90;99.90;;;;;;4950118;28;20024;-64
2022/01/12 06:35:23;;;;;;;5.07;2.10;;;3.90;99.90;;;;;;4954687;28;20047;-64
2022/01/12 06:37:49;;;;;;;3.50;1.33;;;3.90;99.90;;;;;;4953345;28;20557;-64
2022/01/12 06:40:16;;;;;;;3.80;1.98;;;4.00;99.90;;;;;;4949610;28;20126;-64
2022/01/12 06:42:42;;;;;;;1.95;1.17;;;3.90;99.90;;;;;;4955503;28;20465;-64
2022/01/12 06:45:08;;;;;;;5.82;2.55;;;3.90;99.90;;;;;;4930956;28;20415;-64
2022/01/12 06:47:34;;;;;;;3.22;1.50;;;3.90;99.90;;;;;;4962649;28;20014;-64
2022/01/12 06:50:00;;;;;;;4.28;1.65;;;4.00;99.90;;;;;;4947470;28;20487;-64
2022/01/12 06:52:25;;;;;;;6.07;2.30;;;4.10;99.90;;;;;;4947479;28;20023;-64
2022/01/12 06:54:51;;;;;;;5.85;2.20;;;4.00;99.90;;;;;;4945963;28;20027;-64
2022/01/12 06:57:17;;;;;;;3.33;1.85;;;4.10;99.90;;;;;;4947947;28;20032;-63
2022/01/12 06:59:44;;;;;;;2.72;1.60;;;4.10;99.90;;;;;;4949601;28;20625;-64
2022/01/12 07:02:09;;;;;;;5.78;3.08;;;4.10;99.90;;;;;;4947556;28;20027;-63
2022/01/12 07:04:35;;;;;;;2.67;1.60;;;4.10;99.90;;;;;;4948181;28;20090;-64
2022/01/12 07:07:01;;;;;;;5.75;1.95;;;4.10;99.90;;;;;;4941544;28;20024;-63
2022/01/12 07:09:27;;;;;;;3.42;1.80;;;4.10;99.90;;;;;;4943928;28;20023;-63
2022/01/12 07:11:53;;;;;;;4.18;1.70;;;4.10;99.90;;;;;;4949734;28;20038;-63
2022/01/12 07:14:19;;;;;;;4.47;1.95;;;4.10;99.90;;;;;;4942898;29;20035;-63
2022/01/12 07:16:44;;;;;;;2.58;1.52;;;4.00;99.90;;;;;;4948431;28;21810;-63
2022/01/12 07:19:10;;;;;;;3.95;1.92;;;4.10;99.90;;;;;;4947021;28;20461;-63
2022/01/12 07:21:36;;;;;;;3.95;2.28;;;4.10;99.90;;;;;;4943304;28;20054;-64
2022/01/12 07:24:03;;;;;;;6.20;2.40;;;4.10;99.90;;;;;;4928352;29;20651;-63
2022/01/12 07:26:29;;;;;;;8.65;2.22;;;4.20;99.90;;;;;;4943922;28;20019;-63
2022/01/12 07:28:56;;;;;;;4.22;1.50;;;4.20;99.90;;;;;;4933765;29;20171;-63
2022/01/12 07:31:22;;;;;;;4.10;1.58;;;4.20;99.90;;;;;;4939596;29;20027;-64
2022/01/12 07:33:47;;;;;;;6.88;2.53;;;4.20;99.90;;;;;;4949031;28;20034;-63
2022/01/12 07:36:14;;;;;;;6.97;2.55;;;4.20;99.90;;;;;;4962031;28;20019;-63
2022/01/12 07:38:40;;;;;;;6.10;2.30;;;4.20;99.90;;;;;;4958080;28;20741;-63
2022/01/12 07:41:06;;;;;;;6.90;3.10;;;4.10;99.90;;;;;;4960661;28;20051;-64
2022/01/12 07:43:31;;;;;;;2.03;1.27;;;4.10;99.90;;;;;;4946933;28;20065;-63
2022/01/12 07:45:57;;;;;;;4.82;1.98;;;4.10;99.90;;;;;;4951433;28;20028;-63
2022/01/12 07:48:23;;;;;;;6.20;2.58;;;4.10;99.90;;;;;;4928445;29;20075;-63
2022/01/12 07:50:49;;;;;;;7.63;1.48;;;4.20;99.90;;;;;;4952131;28;20054;-63
2022/01/12 07:53:14;;;;;;;2.88;1.85;;;4.20;99.90;;;;;;4952190;28;20031;-63
2022/01/12 07:55:40;;;;;;;8.57;1.88;;;4.10;99.90;;;;;;4949009;29;20046;-63
2022/01/12 07:58:05;;;;;;;4.38;2.35;;;4.20;99.90;;;;;;4950527;28;20027;-63
2022/01/12 08:00:31;;;;;;;6.10;3.53;;;4.20;99.90;;;;;;4950025;28;20447;-63
2022/01/12 08:02:57;;;;;;;6.93;2.70;;;4.10;99.90;;;;;;4948337;28;20035;-63
2022/01/12 08:05:22;;;;;;;3.40;1.73;;;4.10;99.90;;;;;;4950410;28;20028;-63
2022/01/12 08:07:49;;;;;;;4.60;2.28;;;4.10;99.90;;;;;;4945843;28;20126;-63
2022/01/12 08:10:15;;;;;;;5.38;2.13;;;4.20;99.90;;;;;;4946149;28;20030;-63
2022/01/12 08:12:42;;;;;;;3.10;1.52;;;4.10;99.90;;;;;;4947504;28;20039;-63
2022/01/12 08:15:09;;;;;;;4.35;2.28;;;4.10;99.90;;;;;;4944128;28;20039;-63
2022/01/12 08:17:35;;;;;;;9.88;2.08;;;4.20;99.90;;;;;;4944219;28;20805;-63
2022/01/12 08:20:03;;;;;;;6.65;2.53;;;4.20;99.90;;;;;;4948280;28;20035;-63
2022/01/12 08:22:29;;;;;;;5.40;1.88;;;4.20;99.90;;;;;;4938748;28;20719;-63
2022/01/12 08:24:54;;;;;;;4.82;2.90;;;4.10;99.90;;;;;;4947733;28;20114;-63
2022/01/12 08:27:21;;;;;;;5.22;1.77;;;4.20;99.90;;;;;;4951131;28;20503;-63
2022/01/12 08:29:49;;;;;;;2.72;1.92;;;4.20;99.90;;;;;;4950343;28;20020;-63
2022/01/12 08:32:15;;;;;;;8.38;2.30;;;4.20;99.90;;;;;;4944368;28;20062;-63
2022/01/12 08:34:40;;;;;;;5.60;2.08;;;4.10;99.90;;;;;;4942111;28;20492;-63
2022/01/12 08:37:06;;;;;;;2.08;1.50;;;4.10;99.90;;;;;;4927112;29;20118;-63
2022/01/12 08:39:32;;;;;;;5.40;2.25;;;4.10;99.90;;;;;;4948276;28;20487;-63
2022/01/12 08:41:57;;;;;;;6.28;3.40;;;4.00;99.90;;;;;;4946352;28;20068;-63
2022/01/12 08:44:23;;;;;;;6.05;2.35;;;4.00;99.90;;;;;;4942331;28;20028;-63
2022/01/12 08:46:49;;;;;;;3.85;1.35;;;4.10;99.90;;;;;;4944740;28;20475;-64
2022/01/12 08:49:14;;;;;;;4.93;2.58;;;4.00;99.90;;;;;;4942392;28;20036;-63
2022/01/12 08:51:40;;;;;;;7.10;2.70;;;4.00;99.90;;;;;;4929082;29;20036;-63
2022/01/12 08:54:06;;;;;;;5.10;2.10;;;4.10;99.90;;;;;;4927391;28;20031;-63
2022/01/12 08:56:32;;;;;;;7.55;3.53;;;4.20;99.90;;;;;;4948780;28;20054;-63
2022/01/12 08:58:58;;;;;;;3.38;1.98;;;4.10;99.90;;;;;;4947273;29;20023;-63
2022/01/12 09:01:24;;;;;;;7.65;3.38;;;4.20;99.90;;;;;;4935196;29;20463;-63
2022/01/12 09:03:49;;;;;;;7.45;3.20;;;4.10;99.90;;;;;;4946124;28;20111;-63
2022/01/12 09:06:15;;;;;;;5.93;3.38;;;4.20;99.90;;;;;;4943434;28;20027;-63
2022/01/12 09:08:44;;;;;;;9.40;3.90;;;4.30;99.90;;;;;;4943552;28;20054;-63
2022/01/12 09:11:10;;;;;;;5.10;2.22;;;4.30;99.90;;;;;;4928352;28;20023;-63
2022/01/12 09:13:35;;;;;;;10.88;2.88;;;4.30;99.90;;;;;;4948735;28;20039;-63
2022/01/12 09:16:06;;;;;;;5.57;2.22;;;4.20;99.90;;;;;;4946408;28;20095;-63
2022/01/12 09:18:34;;;;;;;6.13;1.98;;;4.30;99.90;;;;;;4930740;29;20105;-63
2022/01/12 09:20:59;;;;;;;6.18;2.60;;;4.20;99.90;;;;;;4948341;28;20385;-63
2022/01/12 09:23:25;;;;;;;9.88;2.38;;;4.20;99.90;;;;;;4947327;28;20031;-63
2022/01/12 09:25:51;;;;;;;8.23;2.10;;;4.20;99.90;;;;;;4947208;28;20032;-63
2022/01/12 09:28:17;;;;;;;9.23;2.92;;;4.10;99.90;;;;;;4948930;28;20546;-63
2022/01/12 09:30:43;;;;;;;5.85;2.75;;;4.20;99.90;;;;;;4931926;28;20027;-63
2022/01/12 09:33:08;;;;;;;7.97;2.60;;;4.10;99.90;;;;;;4948934;28;20103;-64
2022/01/12 09:35:34;;;;;;;8.02;2.80;;;4.20;99.90;;;;;;4948655;28;20035;-64
2022/01/12 09:38:00;;;;;;;8.15;2.67;;;4.20;99.90;;;;;;4944932;28;20038;-63
2022/01/12 09:40:26;;;;;;;7.28;3.35;;;4.30;99.90;;;;;;4943765;28;20066;-63
2022/01/12 09:42:53;;;;;;;7.43;3.28;;;4.20;99.90;;;;;;4947680;28;20031;-63
2022/01/12 09:45:19;;;;;;;10.70;3.08;;;4.20;99.90;;;;;;4949699;28;20073;-63
2022/01/12 09:47:47;;;;;;;7.90;3.30;;;4.20;99.90;;;;;;4955285;28;20526;-64
2022/01/12 09:50:16;;;;;;;3.42;1.48;;;4.20;99.90;;;;;;4955277;28;20015;-63
2022/01/12 09:52:42;;;;;;;13.20;2.92;;;4.20;99.90;;;;;;4945269;28;20034;-63
2022/01/12 09:55:08;;;;;;;15.68;4.30;;;4.20;99.90;;;;;;4951778;28;20040;-63
2022/01/12 09:57:34;;;;;;;10.55;3.25;;;4.40;99.90;;;;;;4934930;28;20475;-63
2022/01/12 10:00:00;;;;;;;22.48;3.63;;;4.50;99.90;;;;;;4956479;28;20058;-63
2022/01/12 10:02:25;;;;;;;5.95;2.60;;;4.60;99.90;;;;;;4951552;28;20026;-63
2022/01/12 10:05:02;;;;;;;6.90;3.42;;;4.60;99.90;;;;;;4954161;28;20023;-63
2022/01/12 10:07:27;;;;;;;7.28;3.47;;;4.50;99.90;;;;;;4946561;28;20383;-63
2022/01/12 10:09:59;;;;;;;6.15;2.70;;;4.70;99.90;;;;;;4953114;28;20023;-63
2022/01/12 10:12:27;;;;;;;7.50;2.85;;;4.70;99.90;;;;;;4956944;28;20035;-63
2022/01/12 10:15:01;;;;;;;8.00;3.22;;;4.70;99.90;;;;;;4953543;28;20023;-63
2022/01/12 10:17:41;;;;;;;7.78;2.08;;;4.80;99.90;;;;;;4953093;28;20364;-63
2022/01/12 10:20:13;;;;;;;5.53;2.95;;;4.80;99.90;;;;;;4951706;28;20082;-63
2022/01/12 10:22:59;;;;;;;8.35;3.53;;;4.80;99.90;;;;;;4952204;28;20042;-63
2022/01/12 10:25:28;;;;;;;5.65;2.72;;;4.70;99.90;;;;;;4953817;28;20570;-63
2022/01/12 10:27:55;;;;;;;9.05;2.85;;;4.70;99.90;;;;;;4932239;29;20450;-63
2022/01/12 10:30:22;;;;;;;8.82;3.75;;;4.70;99.90;;;;;;4951392;28;20023;-63
2022/01/12 10:33:08;;;;;;;10.25;3.92;;;4.80;99.90;;;;;;4949924;28;20559;-63
2022/01/12 10:35:41;;;;;;;9.88;3.88;;;4.90;99.90;;;;;;4953773;28;20616;-63
2022/01/12 10:38:17;;;;;;;3.80;1.88;;;5.10;99.90;;;;;;4945640;28;20031;-63
2022/01/12 10:40:51;;;;;;;6.30;2.72;;;5.00;99.90;;;;;;4952726;28;20035;-63
2022/01/12 10:43:49;;;;;;;9.95;3.80;;;5.00;99.90;;;;;;4947593;28;20054;-63
2022/01/12 10:46:17;;;;;;;6.50;3.42;;;4.90;99.90;;;;;;4904543;28;20039;-64
2022/01/12 10:48:52;;;;;;;9.98;4.28;;;5.00;99.90;;;;;;4949748;28;20042;-63
2022/01/12 10:51:24;;;;;;;7.97;3.55;;;4.90;99.90;;;;;;4953948;28;20023;-63
2022/01/12 10:53:52;;;;;;;8.50;3.85;;;4.90;99.90;;;;;;4950098;28;20027;-63
2022/01/12 10:56:20;;;;;;;11.63;4.22;;;4.70;99.90;;;;;;4952929;28;20054;-63
2022/01/12 10:58:48;;;;;;;8.23;3.25;;;4.70;99.90;;;;;;4948260;28;20392;-63
2022/01/12 11:01:16;;;;;;;10.20;3.97;;;4.80;99.90;;;;;;4953812;28;20023;-63
2022/01/12 11:03:42;;;;;;;10.82;3.65;;;4.80;99.90;;;;;;4951278;28;20051;-64
2022/01/12 11:06:09;;;;;;;7.65;3.55;;;4.70;99.90;;;;;;4945539;28;20023;-63
2022/01/12 11:08:36;;;;;;;13.57;4.50;;;4.60;99.90;;;;;;4946997;28;20506;-63
2022/01/12 11:11:02;;;;;;;7.07;3.17;;;4.50;99.90;;;;;;4934255;29;20101;-64
2022/01/12 11:13:30;;;;;;;12.70;3.42;;;4.60;99.90;;;;;;4947759;28;20042;-63
2022/01/12 11:15:59;;;;;;;13.13;4.63;;;4.60;99.90;;;;;;4946481;28;20368;-63
2022/01/12 11:18:34;;;;;;;10.07;3.60;;;4.60;99.90;;;;;;4946792;28;20030;-63
2022/01/12 11:21:06;;;;;;;11.73;4.38;;;4.60;99.90;;;;;;4944725;28;20071;-63
2022/01/12 11:23:38;;;;;;;10.52;3.13;;;4.50;99.90;;;;;;4946927;28;20027;-64
2022/01/12 11:26:25;;;;;;;10.73;4.40;;;4.50;99.90;;;;;;4952643;28;20427;-64
2022/01/12 11:28:53;;;;;;;15.07;4.05;;;4.50;99.90;;;;;;4950372;29;20046;-64
2022/01/12 11:31:34;;;;;;;9.55;3.70;;;4.60;99.90;;;;;;4950271;28;20023;-64
2022/01/12 11:34:00;;;;;;;9.13;2.97;;;4.60;99.90;;;;;;4928833;28;20523;-63
2022/01/12 11:36:28;;;;;;;10.60;4.70;;;4.80;99.90;;;;;;4946964;28;20031;-62
2022/01/12 11:39:00;;;;;;;2.92;1.35;;;4.80;99.90;;;;;;4949459;28;20023;-63
2022/01/12 11:41:28;;;;;;;8.15;4.00;;;4.80;99.90;;;;;;4952906;28;20028;-64
2022/01/12 11:44:08;;;;;;;15.50;4.60;;;4.70;99.90;;;;;;4947342;28;20058;-61
2022/01/12 11:46:41;;;;;;;;;;;4.70;99.90;;;;;;4953157;28;20058;-63
2022/01/12 11:49:07;;;;;;;7.15;3.42;;;4.70;99.90;;;;;;4952699;28;20482;-61
2022/01/12 11:51:39;;;;;;;14.57;4.40;;;4.80;99.90;;;;;;4953383;28;20094;-65
2022/01/12 11:54:16;;;;;;;12.82;5.47;;;4.80;99.90;;;;;;4950253;28;20203;-61
2022/01/12 11:56:57;;;;;;;14.38;5.57;;;4.80;99.90;;;;;;4951850;28;20122;-61
2022/01/12 11:59:26;;;;;;;18.02;4.75;;;4.90;99.90;;;;;;4951387;28;20038;-61
2022/01/12 12:02:04;;;;;;;13.25;5.35;;;4.80;99.90;;;;;;4948693;28;20042;-62
2022/01/12 12:04:32;;;;;;;14.43;4.25;;;4.80;99.90;;;;;;4951832;28;20023;-62
2022/01/12 12:07:03;;;;;;;7.70;3.33;;;5.00;99.90;;;;;;4948722;28;20027;-62
2022/01/12 12:09:57;;;;;;;8.38;3.90;;;5.00;99.90;;;;;;4947491;28;20496;-61
2022/01/12 12:12:34;;;;;;;11.52;4.30;;;4.80;99.90;;;;;;4930936;28;20042;-61
2022/01/12 12:15:02;;;;;;;14.82;4.38;;;4.60;99.90;;;;;;4953176;29;20031;-62
2022/01/12 12:17:32;;;;;;;16.70;5.28;;;4.60;99.90;;;;;;4945960;28;20043;-63
2022/01/12 12:19:59;;;;;;;13.65;6.10;;;4.60;99.90;;;;;;4949720;28;20039;-62
2022/01/12 12:22:26;;;;;;;11.38;4.63;;;4.60;99.90;;;;;;4953287;28;20089;-62
2022/01/12 12:24:56;;;;;;;11.70;5.38;;;4.50;99.90;;;;;;4947141;28;20391;-62
2022/01/12 12:27:24;;;;;;;22.20;5.88;;;4.50;99.90;;;;;;4947298;28;20114;-62
2022/01/12 12:29:51;;;;;;;22.42;6.53;;;4.50;99.90;;;;;;4952108;28;20023;-62
2022/01/12 12:32:19;;;;;;;6.90;3.38;;;4.50;99.90;;;;;;4950205;28;20019;-62
2022/01/12 12:34:46;;;;;;;22.92;4.20;;;4.60;99.90;;;;;;4949272;28;20031;-63
2022/01/12 12:37:15;;;;;;;16.30;5.28;;;4.60;99.90;;;;;;4947187;28;20030;-63
2022/01/12 12:39:44;;;;;;;16.27;5.78;;;4.70;99.90;;;;;;4932442;29;20036;-63
2022/01/12 12:42:19;;;;;;;24.88;5.63;;;4.70;99.90;;;;;;4950962;28;20027;-62
2022/01/12 12:44:45;;;;;;;10.48;5.30;;;4.70;99.90;;;;;;4945776;28;20028;-62
2022/01/12 12:47:17;;;;;;;22.17;7.15;;;4.50;99.90;;;;;;4948403;28;20031;-62
2022/01/12 12:49:47;;;;;;;19.45;5.95;;;4.50;99.90;;;;;;4952693;28;20118;-62
2022/01/12 12:52:23;;;;;;;17.15;5.18;;;4.50;99.90;;;;;;4935952;28;20463;-62
2022/01/12 12:54:49;;;;;;;13.98;5.50;;;4.50;99.90;;;;;;4949911;28;20135;-63
2022/01/12 12:57:20;;;;;;;12.68;5.38;;;4.50;99.90;;;;;;4947536;28;20121;-63
2022/01/12 12:59:50;;;;;;;19.20;5.68;;;4.70;99.90;;;;;;4948090;28;20094;-62
2022/01/12 13:02:17;;;;;;;16.05;5.57;;;4.70;99.90;;;;;;4950258;28;20035;-62
2022/01/12 13:04:43;;;;;;;11.52;4.70;;;4.60;99.90;;;;;;4940915;28;20128;-62
2022/01/12 13:07:18;;;;;;;13.27;5.65;;;4.60;99.90;;;;;;4944848;28;20458;-62
2022/01/12 13:09:47;;;;;;;14.20;4.88;;;4.60;99.90;;;;;;4945656;28;20491;-62
2022/01/12 13:12:13;;;;;;;15.47;6.17;;;4.50;99.90;;;;;;4946672;28;20038;-62
2022/01/12 13:14:46;;;;;;;29.38;6.30;;;4.60;99.90;;;;;;4946876;28;20035;-63
2022/01/12 13:17:13;;;;;;;14.55;6.72;;;4.60;99.90;;;;;;4946052;28;20152;-62
2022/01/12 13:22:30;;;;;;;21.90;6.47;;;4.50;99.90;;;;;;4948388;28;20035;-62
2022/01/12 13:24:57;;;;;;;27.52;7.05;;;4.40;99.90;;;;;;4945292;28;20034;-63
2022/01/12 13:27:24;;;;;;;23.10;7.22;;;4.30;99.90;;;;;;4934849;28;20046;-63
2022/01/12 13:29:51;;;;;;;24.27;7.95;;;4.30;99.90;;;;;;4951468;28;20431;-63
2022/01/12 13:32:17;;;;;;;14.75;5.63;;;4.20;99.90;;;;;;4949512;28;20038;-62
2022/01/12 13:34:54;;;;;;;15.73;4.72;;;4.50;99.90;;;;;;4946643;28;20027;-63
2022/01/12 13:37:20;;;;;;;24.40;6.30;;;4.70;99.90;;;;;;4944607;28;20129;-62
2022/01/12 13:40:00;;;;;;;16.45;6.25;;;4.60;99.90;;;;;;4949955;28;20039;-62
2022/01/12 13:42:25;;;;;;;25.13;6.55;;;4.70;99.90;;;;;;4948117;28;20034;-63
2022/01/12 13:45:04;;;;;;;18.88;7.60;;;4.70;99.90;;;;;;4946690;28;20024;-63
2022/01/12 13:47:34;;;;;;;10.73;4.75;;;4.80;99.90;;;;;;4950462;28;20411;-63
2022/01/12 13:50:06;;;;;;;15.38;7.45;;;4.80;99.90;;;;;;4951111;28;20024;-63
2022/01/12 13:52:32;;;;;;;16.65;7.05;;;4.80;99.90;;;;;;4934646;28;20518;-63
2022/01/12 13:55:09;;;;;;;16.75;5.28;;;4.80;99.90;;;;;;4943642;28;20035;-62
2022/01/12 13:57:34;;;;;;;15.65;5.95;;;4.90;99.90;;;;;;4948967;28;20050;-62
2022/01/12 14:00:00;;;;;;;16.17;7.35;;;4.70;99.90;;;;;;4946367;28;20028;-62
2022/01/12 14:02:28;;;;;;;18.27;6.88;;;4.60;99.90;;;;;;4929683;29;20628;-63
2022/01/12 14:05:07;;;;;;;37.95;6.88;;;4.50;99.90;;;;;;4949192;28;20109;-63
2022/01/12 14:07:38;;;;;;;24.35;8.07;;;4.50;99.90;;;;;;4947705;28;20027;-63
2022/01/12 14:10:06;;;;;;;21.45;7.43;;;4.70;99.90;;;;;;4952332;28;20015;-63
2022/01/12 14:12:32;;;;;;;21.83;7.68;;;4.70;99.90;;;;;;4949883;28;20139;-63
2022/01/12 14:15:05;;;;;;;17.95;7.65;;;4.60;99.90;;;;;;4934585;29;20027;-63
2022/01/12 14:17:39;;;;;;;9.43;4.65;;;4.50;99.90;;;;;;4945727;28;20035;-62
2022/01/12 14:20:12;;;;;;;13.27;6.00;;;4.50;99.90;;;;;;4946670;28;20849;-63